createdAt,value
2023-04-16T00:03:09.574Z,71.56
2023-04-16T00:09:10.652Z,72.14
2023-04-16T00:18:12.798Z,72.72
2023-04-16T00:24:00.255Z,72.73
2023-04-16T00:26:45.889Z,73.03
2023-04-16T00:32:33.540Z,73.19
2023-04-16T00:41:43.586Z,73.60
2023-04-16T00:44:29.857Z,73.84
2023-04-16T00:47:15.712Z,73.70
2023-04-16T00:50:03.847Z,73.54
2023-04-16T00:56:36.416Z,73.98
2023-04-16T00:59:23.195Z,73.59
2023-04-16T01:05:10.136Z,73.92
2023-04-16T01:08:00.195Z,74.12
2023-04-16T01:17:14.942Z,74.07
2023-04-16T01:23:08.481Z,73.74
2023-04-16T01:29:09.576Z,73.83
2023-04-16T01:31:55.128Z,74.23
2023-04-16T01:34:40.170Z,73.88
2023-04-16T01:46:51.995Z,74.08
2023-04-16T01:59:41.144Z,74.52
2023-04-16T02:08:49.565Z,74.78
2023-04-16T02:11:35.628Z,74.71
2023-04-16T02:14:57.463Z,74.71
2023-04-16T02:23:57.468Z,74.88
2023-04-16T02:29:35.618Z,74.85
2023-04-16T02:35:37.826Z,75.02
2023-04-16T02:41:46.786Z,75.47
2023-04-16T02:44:32.464Z,75.28
2023-04-16T02:47:17.703Z,75.08
2023-04-16T02:53:18.624Z,75.42
2023-04-16T02:59:05.669Z,75.21
2023-04-16T03:04:43.654Z,75.38
2023-04-16T03:13:47.803Z,75.40
2023-04-16T03:19:50.664Z,75.71
2023-04-16T03:22:36.035Z,75.48
2023-04-16T03:25:40.165Z,75.47
2023-04-16T03:28:25.595Z,75.61
2023-04-16T03:34:12.075Z,76.01
2023-04-16T03:36:57.836Z,75.97
2023-04-16T03:42:58.820Z,76.13
2023-04-16T03:51:46.031Z,76.65
2023-04-16T03:54:32.398Z,76.21
2023-04-16T04:03:40.697Z,76.47
2023-04-16T04:13:48.206Z,76.57
2023-04-16T04:19:27.034Z,76.75
2023-04-16T04:22:12.028Z,76.58
2023-04-16T04:31:04.240Z,77.18
2023-04-16T04:33:50.946Z,77.09
2023-04-16T04:36:36.079Z,77.07
2023-04-16T04:39:21.352Z,77.22
2023-04-16T04:42:06.490Z,77.17
2023-04-16T04:44:51.416Z,77.12
2023-04-16T04:47:51.341Z,77.08
2023-04-16T04:58:00.230Z,77.23
2023-04-16T05:09:48.400Z,76.71
2023-04-16T05:12:33.862Z,76.86
2023-04-16T05:15:19.620Z,77.02
2023-04-16T05:18:04.918Z,76.97
2023-04-16T05:20:50.104Z,77.30
2023-04-16T05:23:35.503Z,77.39
2023-04-16T05:26:20.966Z,77.26
2023-04-16T05:29:06.285Z,77.44
2023-04-16T05:31:51.421Z,77.24
2023-04-16T05:34:36.400Z,77.23
2023-04-16T05:37:21.176Z,77.11
2023-04-16T05:46:07.374Z,77.45
2023-04-16T05:51:52.372Z,76.84
2023-04-16T05:57:33.175Z,76.78
2023-04-16T06:03:25.133Z,76.33
2023-04-16T06:06:10.533Z,76.12
2023-04-16T06:08:55.851Z,75.89
2023-04-16T06:11:43.879Z,75.63
2023-04-16T06:14:29.775Z,75.24
2023-04-16T06:17:14.985Z,74.95
2023-04-16T06:26:30.805Z,74.69
2023-04-16T06:29:15.897Z,74.55
2023-04-16T06:32:03.110Z,74.37
2023-04-16T06:34:48.430Z,74.42
2023-04-16T06:37:33.377Z,74.27
2023-04-16T06:40:18.722Z,74.34
2023-04-16T06:43:03.910Z,74.05
2023-04-16T06:45:49.674Z,74.19
2023-04-16T06:48:35.088Z,74.17
2023-04-16T06:51:20.525Z,74.27
2023-04-16T06:57:05.930Z,73.69
2023-04-16T06:59:51.559Z,73.76
2023-04-16T07:02:37.339Z,73.62
2023-04-16T07:05:22.456Z,73.75
2023-04-16T07:11:23.515Z,73.11
2023-04-16T07:14:10.233Z,72.96
2023-04-16T07:16:55.454Z,72.67
2023-04-16T07:19:40.934Z,72.38
2023-04-16T07:22:27.769Z,71.78
2023-04-16T07:25:14.444Z,71.18
2023-04-16T07:33:55.424Z,70.18
2023-04-16T07:36:40.856Z,69.44
2023-04-16T07:39:31.473Z,69.12
2023-04-16T07:45:06.730Z,67.56
2023-04-16T07:47:52.429Z,67.31
2023-04-16T07:50:37.784Z,66.85
2023-04-16T07:53:23.028Z,66.33
2023-04-16T07:56:08.957Z,66.16
2023-04-16T07:58:54.519Z,65.58
2023-04-16T08:01:39.978Z,64.43
2023-04-16T08:04:26.363Z,63.37
2023-04-16T08:10:13.154Z,63.28
2023-04-16T08:13:00.693Z,63.15
2023-04-16T08:15:46.272Z,62.94
2023-04-16T08:18:31.492Z,62.71
2023-04-16T08:43:37.508Z,63.27
2023-04-16T08:49:45.815Z,62.34
2023-04-16T08:52:34.395Z,61.50
2023-04-16T08:55:36.930Z,61.81
2023-04-16T09:01:19.315Z,61.11
2023-04-16T09:04:07.939Z,60.37
2023-04-16T09:06:55.179Z,59.61
2023-04-16T09:09:43.292Z,58.71
2023-04-16T09:22:07.706Z,55.72
2023-04-16T09:24:53.083Z,54.14
2023-04-16T09:27:39.179Z,54.56
2023-04-16T09:54:52.421Z,49.91
2023-04-16T09:57:52.477Z,49.56
2023-04-16T10:00:43.669Z,49.65
2023-04-16T10:03:34.621Z,49.44
2023-04-16T10:35:41.533Z,47.69
2023-04-16T11:10:42.687Z,41.27
2023-04-16T11:13:27.954Z,41.01
2023-04-16T11:22:42.202Z,38.49
2023-04-16T12:01:51.571Z,34.61
2023-04-16T12:28:39.660Z,31.61
2023-04-16T12:34:36.555Z,33.01
2023-04-16T12:37:32.224Z,33.22
2023-04-16T12:40:28.074Z,32.75
2023-04-16T12:43:20.855Z,32.22
2023-04-16T12:56:05.310Z,31.44
2023-04-16T13:40:49.613Z,35.12
2023-04-16T14:00:39.347Z,39.47
2023-04-16T14:06:26.395Z,40.92
2023-04-16T14:09:12.265Z,41.19
2023-04-16T14:45:19.475Z,46.28
2023-04-16T14:50:58.586Z,46.37
2023-04-16T14:53:44.089Z,46.67
2023-04-16T15:02:38.718Z,47.07
2023-04-16T15:11:03.325Z,46.86
2023-04-16T15:14:04.250Z,46.91
2023-04-16T15:19:42.548Z,46.88
2023-04-16T15:51:00.967Z,45.13
2023-04-16T15:53:47.105Z,45.18
2023-04-16T15:56:32.715Z,44.95
2023-04-16T16:09:04.006Z,46.15
2023-04-16T16:24:57.422Z,48.39
2023-04-16T16:27:43.022Z,48.25
2023-04-16T16:33:39.092Z,49.32
2023-04-16T16:39:38.535Z,50.98
2023-04-16T16:48:33.395Z,53.05
2023-04-16T16:51:18.567Z,53.00
2023-04-16T16:54:03.623Z,53.14
2023-04-16T16:56:49.069Z,53.48
2023-04-16T16:59:37.996Z,53.94
2023-04-16T17:11:26.527Z,55.18
2023-04-16T17:14:12.006Z,54.72
2023-04-16T17:17:15.040Z,54.58
2023-04-16T17:26:08.764Z,55.08
2023-04-16T17:28:54.296Z,55.23
2023-04-16T17:31:39.636Z,55.73
2023-04-16T17:34:25.484Z,56.15
2023-04-16T17:43:19.755Z,57.40
2023-04-16T17:46:05.591Z,57.58
2023-04-16T17:48:50.537Z,57.83
2023-04-16T17:54:45.697Z,58.70
2023-04-16T17:57:31.481Z,58.96
2023-04-16T18:00:17.294Z,59.53
2023-04-16T18:03:02.606Z,59.77
2023-04-16T18:05:47.892Z,59.83
2023-04-16T18:08:35.941Z,59.77
2023-04-16T18:11:20.990Z,59.96
2023-04-16T18:14:09.093Z,59.79
2023-04-16T18:16:54.367Z,59.94
2023-04-16T18:19:42.996Z,60.04
2023-04-16T18:22:28.254Z,60.29
2023-04-16T18:25:13.875Z,60.60
2023-04-16T18:27:59.137Z,61.09
2023-04-16T18:30:44.801Z,61.47
2023-04-16T18:33:52.627Z,62.10
2023-04-16T18:36:35.662Z,62.52
2023-04-16T18:39:42.585Z,62.89
2023-04-16T18:42:44.456Z,63.30
2023-04-16T18:45:34.385Z,63.58
2023-04-16T18:48:19.631Z,63.83
2023-04-16T18:51:04.918Z,64.16
2023-04-16T18:53:50.712Z,64.25
2023-04-16T18:56:36.152Z,64.52
2023-04-16T18:59:21.702Z,64.74
2023-04-16T19:02:06.908Z,64.93
2023-04-16T19:04:52.306Z,65.18
2023-04-16T19:07:37.906Z,65.36
2023-04-16T19:10:54.987Z,65.38
2023-04-16T19:13:40.367Z,65.56
2023-04-16T19:16:25.508Z,65.60
2023-04-16T19:19:10.676Z,65.57
2023-04-16T19:21:56.249Z,65.63
2023-04-16T19:24:41.624Z,65.65
2023-04-16T19:27:28.609Z,65.72
2023-04-16T19:30:14.084Z,65.90
2023-04-16T19:33:01.805Z,65.87
2023-04-16T19:35:47.097Z,66.03
2023-04-16T19:38:32.023Z,66.06
2023-04-16T19:41:17.158Z,66.12
2023-04-16T19:46:59.819Z,66.32
2023-04-16T19:49:45.057Z,66.32
2023-04-16T19:55:23.702Z,66.36
2023-04-16T19:58:09.075Z,66.50
2023-04-16T20:00:55.090Z,66.48
2023-04-16T20:03:40.577Z,66.56
2023-04-16T20:06:26.280Z,66.85
2023-04-16T20:09:11.642Z,66.77
2023-04-16T20:11:57.449Z,66.92
2023-04-16T20:17:28.593Z,66.81
2023-04-16T20:20:15.138Z,66.76
2023-04-16T20:23:07.187Z,66.89
2023-04-16T20:25:52.681Z,66.95
2023-04-16T20:28:37.724Z,66.81
2023-04-16T20:31:22.819Z,66.93
2023-04-16T20:34:08.227Z,66.94
2023-04-16T20:36:54.320Z,66.96
2023-04-16T20:39:41.434Z,67.09
2023-04-16T20:42:27.006Z,67.28
2023-04-16T20:45:12.134Z,67.06
2023-04-16T20:48:00.657Z,67.33
2023-04-16T20:51:09.560Z,67.36
2023-04-16T20:56:37.375Z,67.39
2023-04-16T20:59:23.504Z,67.61
2023-04-16T21:05:26.240Z,67.57
2023-04-16T21:08:12.027Z,67.47
2023-04-16T21:10:57.084Z,67.46
2023-04-16T21:13:43.507Z,67.45
2023-04-16T21:16:29.207Z,67.58
2023-04-16T21:19:14.650Z,67.54
2023-04-16T21:22:01.857Z,67.62
2023-04-16T21:24:47.200Z,67.57
2023-04-16T21:27:32.643Z,67.52
2023-04-16T21:30:17.976Z,67.52
2023-04-16T21:33:03.339Z,67.73
2023-04-16T21:35:52.192Z,67.66
2023-04-16T21:38:37.428Z,67.66
2023-04-16T21:41:22.670Z,67.57
2023-04-16T21:44:08.109Z,67.68
2023-04-16T21:46:53.539Z,67.77
2023-04-16T21:49:38.985Z,67.83
2023-04-16T21:52:24.354Z,67.84
2023-04-16T21:55:09.788Z,67.95
2023-04-16T21:57:55.069Z,68.08
2023-04-16T22:00:39.987Z,68.14
2023-04-16T22:03:30.587Z,68.27
2023-04-16T22:06:16.548Z,68.56
2023-04-16T22:09:01.786Z,68.67
2023-04-16T22:11:47.316Z,68.86
2023-04-16T22:14:36.141Z,69.02
2023-04-16T22:17:21.604Z,69.37
2023-04-16T22:20:16.939Z,69.56
2023-04-16T22:23:02.029Z,69.64
2023-04-16T22:25:47.117Z,69.78
2023-04-16T22:28:32.389Z,69.92
2023-04-16T22:31:17.580Z,70.02
2023-04-16T22:34:03.569Z,70.23
2023-04-16T22:36:49.126Z,70.36
2023-04-16T22:39:34.419Z,70.63
2023-04-16T22:42:19.342Z,70.57
2023-04-16T22:45:05.336Z,70.66
2023-04-16T22:47:50.244Z,70.81
2023-04-16T22:50:35.321Z,70.88
2023-04-16T22:53:20.764Z,70.91
2023-04-16T22:56:06.296Z,71.17
2023-04-16T22:58:52.261Z,71.25
2023-04-16T23:01:37.977Z,71.33
2023-04-16T23:04:37.599Z,71.35
2023-04-16T23:07:24.169Z,71.44
2023-04-16T23:10:09.237Z,71.38
2023-04-16T23:12:54.639Z,71.63
2023-04-16T23:15:39.474Z,71.69
2023-04-16T23:18:24.509Z,71.60
2023-04-16T23:21:09.370Z,71.80
2023-04-16T23:23:56.003Z,71.92
2023-04-16T23:26:41.239Z,71.96
2023-04-16T23:29:26.295Z,71.97
2023-04-16T23:32:11.282Z,72.18
2023-04-16T23:34:56.967Z,72.44
2023-04-16T23:37:41.911Z,72.34
2023-04-16T23:40:26.839Z,72.55
2023-04-16T23:43:12.312Z,72.32
2023-04-16T23:45:57.483Z,72.63
2023-04-16T23:48:42.756Z,72.90
2023-04-16T23:51:27.717Z,72.98
2023-04-16T23:54:12.520Z,73.02
2023-04-16T23:56:57.973Z,73.23
2023-04-16T23:59:43.046Z,73.53
